createdAt,value
2023-01-20T00:01:38.009Z,0.62
2023-01-20T00:06:39.165Z,0.62
2023-01-20T00:11:40.347Z,0.69
2023-01-20T00:16:41.585Z,0.69
2023-01-20T00:21:42.892Z,0.61
2023-01-20T00:26:44.064Z,0.61
2023-01-20T00:31:45.345Z,0.64
2023-01-20T00:36:46.551Z,0.72
2023-01-20T00:41:47.788Z,0.78
2023-01-20T00:46:48.984Z,0.81
2023-01-20T00:51:50.189Z,0.84
2023-01-20T00:56:51.389Z,0.82
2023-01-20T01:01:54.906Z,0.83
2023-01-20T01:06:56.127Z,0.83
2023-01-20T01:11:59.403Z,0.81
2023-01-20T01:17:00.577Z,0.80
2023-01-20T01:22:01.801Z,0.74
2023-01-20T01:27:04.437Z,0.77
2023-01-20T01:32:05.625Z,0.78
2023-01-20T01:37:06.785Z,0.79
2023-01-20T01:42:07.960Z,0.80
2023-01-20T01:47:09.180Z,0.77
2023-01-20T01:52:10.405Z,0.73
2023-01-20T01:57:11.545Z,0.74
2023-01-20T02:02:12.723Z,0.79
2023-01-20T02:07:16.470Z,0.83
2023-01-20T02:12:17.768Z,0.79
2023-01-20T02:17:18.919Z,0.81
2023-01-20T02:22:20.128Z,0.75
2023-01-20T02:27:23.944Z,0.80
2023-01-20T02:32:25.149Z,0.82
2023-01-20T02:37:26.338Z,0.87
2023-01-20T02:42:27.529Z,0.88
2023-01-20T02:47:28.692Z,0.86
2023-01-20T02:52:29.856Z,0.86
2023-01-20T02:57:32.915Z,0.87
2023-01-20T03:02:36.839Z,0.84
2023-01-20T03:07:37.997Z,0.86
2023-01-20T03:12:39.189Z,0.90
2023-01-20T03:17:42.760Z,0.87
2023-01-20T03:22:45.976Z,0.84
2023-01-20T03:27:47.126Z,0.83
2023-01-20T03:32:48.273Z,0.78
2023-01-20T03:37:49.500Z,0.75
2023-01-20T03:42:52.819Z,0.77
2023-01-20T03:47:54.040Z,0.79
2023-01-20T03:52:55.240Z,0.81
2023-01-20T03:57:56.694Z,0.81
2023-01-20T04:02:57.898Z,0.78
2023-01-20T04:07:59.143Z,0.80
2023-01-20T04:13:00.378Z,0.83
2023-01-20T04:18:01.585Z,0.84
2023-01-20T04:23:02.800Z,0.84
2023-01-20T04:28:03.993Z,0.82
2023-01-20T04:33:05.171Z,0.82
2023-01-20T04:38:06.607Z,0.81
2023-01-20T04:43:09.932Z,0.79
2023-01-20T04:48:11.293Z,0.76
2023-01-20T04:53:13.523Z,0.78
2023-01-20T04:58:14.805Z,0.79
2023-01-20T05:03:16.044Z,0.78
2023-01-20T05:08:17.235Z,0.79
2023-01-20T05:13:18.480Z,0.79
2023-01-20T05:18:19.704Z,0.76
2023-01-20T05:23:20.919Z,0.72
2023-01-20T05:28:22.150Z,0.71
2023-01-20T05:33:23.382Z,0.69
2023-01-20T05:38:24.531Z,0.68
2023-01-20T05:43:25.669Z,0.66
2023-01-20T05:48:26.874Z,0.67
2023-01-20T05:53:28.057Z,0.68
2023-01-20T05:58:29.221Z,0.67
2023-01-20T06:03:30.404Z,0.65
2023-01-20T06:08:31.654Z,0.65
2023-01-20T06:13:32.830Z,0.67
2023-01-20T06:18:34.035Z,0.67
2023-01-20T06:23:35.266Z,0.65
2023-01-20T06:28:36.485Z,0.63
2023-01-20T06:33:37.773Z,0.60
2023-01-20T06:38:38.959Z,0.60
2023-01-20T06:43:41.844Z,0.61
2023-01-20T06:48:44.299Z,0.60
2023-01-20T06:53:45.530Z,0.57
2023-01-20T06:58:46.706Z,0.53
2023-01-20T07:03:47.905Z,0.52
2023-01-20T07:08:49.184Z,0.47
2023-01-20T07:13:52.885Z,0.46
2023-01-20T07:18:54.044Z,0.45
2023-01-20T07:23:55.266Z,0.47
2023-01-20T07:28:56.482Z,0.51
2023-01-20T07:33:57.751Z,0.52
2023-01-20T07:38:58.908Z,0.52
2023-01-20T07:44:00.127Z,0.52
2023-01-20T07:49:01.357Z,0.59
2023-01-20T07:54:04.332Z,0.60
2023-01-20T07:59:05.507Z,0.59
2023-01-20T08:04:06.702Z,0.60
2023-01-20T08:09:12.155Z,0.65
2023-01-20T08:14:13.365Z,0.64
2023-01-20T08:19:21.867Z,0.61
2023-01-20T08:24:23.077Z,0.61
2023-01-20T08:29:24.237Z,0.59
2023-01-20T08:34:25.422Z,0.61
2023-01-20T08:39:28.666Z,0.63
2023-01-20T08:44:31.888Z,0.65
2023-01-20T08:49:37.762Z,0.70
2023-01-20T08:54:41.016Z,0.78
2023-01-20T08:59:42.387Z,0.80
2023-01-20T09:04:45.093Z,0.96
2023-01-20T09:09:46.344Z,1.05
2023-01-20T09:14:47.568Z,1.17
2023-01-20T09:19:48.725Z,1.34
2023-01-20T09:24:49.859Z,1.52
2023-01-20T09:29:51.087Z,1.50
2023-01-20T09:34:52.335Z,1.52
2023-01-20T09:40:12.383Z,1.58
2023-01-20T09:45:24.743Z,1.73
2023-01-20T09:50:44.663Z,1.88
2023-01-20T09:55:45.804Z,1.89
2023-01-20T10:00:49.073Z,2.13
2023-01-20T10:05:50.295Z,2.12
2023-01-20T10:10:51.544Z,2.03
2023-01-20T10:15:52.695Z,2.00
2023-01-20T10:20:54.013Z,1.89
2023-01-20T10:25:55.243Z,1.83
2023-01-20T10:30:56.469Z,1.85
2023-01-20T10:35:57.720Z,1.83
2023-01-20T10:40:58.941Z,1.77
2023-01-20T10:46:00.104Z,1.78
2023-01-20T10:51:01.302Z,1.83
2023-01-20T10:56:02.872Z,1.99
2023-01-20T11:01:04.100Z,2.06
2023-01-20T11:06:05.325Z,2.11
2023-01-20T11:11:06.517Z,2.12
2023-01-20T11:16:07.695Z,2.18
2023-01-20T11:21:08.897Z,2.16
2023-01-20T11:26:10.211Z,2.07
2023-01-20T11:31:11.547Z,2.15
2023-01-20T11:36:12.741Z,2.21
2023-01-20T11:41:13.922Z,2.22
2023-01-20T11:46:17.425Z,2.30
2023-01-20T11:51:18.961Z,2.49
2023-01-20T11:56:21.141Z,2.59
2023-01-20T12:01:22.492Z,2.63
2023-01-20T12:06:24.240Z,2.59
2023-01-20T12:11:25.395Z,2.56
2023-01-20T12:16:26.575Z,2.53
2023-01-20T12:21:27.855Z,2.48
2023-01-20T12:26:29.055Z,2.48
2023-01-20T12:31:30.306Z,2.46
2023-01-20T12:36:31.493Z,2.48
2023-01-20T12:41:32.678Z,2.37
2023-01-20T12:46:33.917Z,2.35
2023-01-20T12:51:35.169Z,2.38
2023-01-20T12:56:37.071Z,2.32
2023-01-20T13:01:38.317Z,2.25
2023-01-20T13:06:39.545Z,2.22
2023-01-20T13:11:40.719Z,2.20
2023-01-20T13:16:42.873Z,2.12
2023-01-20T13:21:44.179Z,2.16
2023-01-20T13:26:45.411Z,2.15
2023-01-20T13:31:54.078Z,2.18
2023-01-20T13:36:55.365Z,2.23
2023-01-20T13:41:56.665Z,2.22
2023-01-20T13:46:57.929Z,2.24
2023-01-20T13:51:59.246Z,2.23
2023-01-20T13:57:00.407Z,2.20
2023-01-20T14:02:01.598Z,2.10
2023-01-20T14:07:07.719Z,2.05
2023-01-20T14:12:08.949Z,2.04
2023-01-20T14:17:10.178Z,1.88
2023-01-20T14:22:11.734Z,1.77
2023-01-20T14:27:15.225Z,1.71
2023-01-20T14:32:17.379Z,1.63
2023-01-20T14:37:18.631Z,1.60
2023-01-20T14:42:27.204Z,1.56
2023-01-20T14:47:28.420Z,1.47
2023-01-20T14:52:29.990Z,1.36
2023-01-20T14:57:31.415Z,1.37
2023-01-20T15:02:32.677Z,1.41
2023-01-20T15:07:37.910Z,1.44
2023-01-20T15:12:42.577Z,1.43
2023-01-20T15:17:43.769Z,1.48
2023-01-20T15:22:44.937Z,1.50
2023-01-20T15:27:46.172Z,1.44
2023-01-20T15:32:47.424Z,1.41
2023-01-20T15:37:48.652Z,1.41
2023-01-20T15:42:49.854Z,1.35
2023-01-20T15:47:51.101Z,1.34
2023-01-20T15:52:52.392Z,1.31
2023-01-20T15:57:53.549Z,1.30
2023-01-20T16:02:57.924Z,1.28
2023-01-20T16:07:59.233Z,1.27
2023-01-20T16:13:00.373Z,1.27
2023-01-20T16:18:01.587Z,1.30
2023-01-20T16:23:02.825Z,1.28
2023-01-20T16:28:04.312Z,1.26
2023-01-20T16:33:05.526Z,1.20
2023-01-20T16:38:06.652Z,1.05
2023-01-20T16:43:07.867Z,0.84
2023-01-20T16:48:09.268Z,0.65
2023-01-20T16:53:10.446Z,0.48
2023-01-20T16:58:14.028Z,0.35
2023-01-20T17:03:16.737Z,0.24
2023-01-20T17:08:18.348Z,0.12
2023-01-20T17:13:19.557Z,0.04
2023-01-20T17:18:20.731Z,-0.01
2023-01-20T17:23:23.089Z,-0.07
2023-01-20T17:28:24.272Z,-0.12
2023-01-20T17:33:27.756Z,-0.17
2023-01-20T17:38:30.510Z,-0.22
2023-01-20T17:43:32.801Z,-0.23
2023-01-20T17:48:33.995Z,-0.25
2023-01-20T17:53:35.167Z,-0.26
2023-01-20T17:58:36.368Z,-0.30
2023-01-20T18:03:39.063Z,-0.37
2023-01-20T18:08:40.929Z,-0.38
2023-01-20T18:13:42.082Z,-0.43
2023-01-20T18:18:43.452Z,-0.49
2023-01-20T18:23:44.779Z,-0.50
2023-01-20T18:28:47.884Z,-0.55
2023-01-20T18:33:49.122Z,-0.56
2023-01-20T18:38:51.305Z,-0.57
2023-01-20T18:43:52.605Z,-0.58
2023-01-20T18:48:55.219Z,-0.60
2023-01-20T18:53:56.492Z,-0.64
2023-01-20T18:58:57.732Z,-0.68
2023-01-20T19:03:58.958Z,-0.64
2023-01-20T19:09:00.201Z,-0.66
2023-01-20T19:14:01.396Z,-0.66
2023-01-20T19:19:02.652Z,-0.66
2023-01-20T19:24:05.866Z,-0.66
2023-01-20T19:29:10.667Z,-0.69
2023-01-20T19:34:12.685Z,-0.71
2023-01-20T19:39:16.779Z,-0.74
2023-01-20T19:44:18.053Z,-0.78
2023-01-20T19:49:19.190Z,-0.83
2023-01-20T19:54:20.375Z,-0.84
2023-01-20T19:59:21.678Z,-0.85
2023-01-20T20:04:24.107Z,-0.87
2023-01-20T20:09:26.796Z,-0.88
2023-01-20T20:14:29.503Z,-0.87
2023-01-20T20:19:30.678Z,-0.90
2023-01-20T20:24:34.724Z,-0.91
2023-01-20T20:29:35.885Z,-0.94
2023-01-20T20:34:37.116Z,-0.97
2023-01-20T20:39:38.396Z,-1.04
2023-01-20T20:44:40.332Z,-1.06
2023-01-20T20:49:41.675Z,-1.11
2023-01-20T20:54:42.854Z,-1.15
2023-01-20T20:59:58.217Z,-1.17
2023-01-20T21:04:59.897Z,-1.17
2023-01-20T21:10:02.635Z,-1.21
2023-01-20T21:15:03.980Z,-1.25
2023-01-20T21:20:05.196Z,-1.29
2023-01-20T21:25:06.403Z,-1.30
2023-01-20T21:30:07.622Z,-1.29
2023-01-20T21:35:09.251Z,-1.34
2023-01-20T21:40:10.470Z,-1.38
2023-01-20T21:45:14.348Z,-1.36
2023-01-20T21:50:34.476Z,-1.31
2023-01-20T21:55:35.675Z,-1.28
2023-01-20T22:00:36.847Z,-1.28
2023-01-20T22:05:40.336Z,-1.28
2023-01-20T22:10:43.630Z,-1.25
2023-01-20T22:15:44.835Z,-1.25
2023-01-20T22:20:46.655Z,-1.28
2023-01-20T22:25:47.862Z,-1.25
2023-01-20T22:30:49.136Z,-1.28
2023-01-20T22:35:50.297Z,-1.35
2023-01-20T22:40:51.464Z,-1.40
2023-01-20T22:45:52.694Z,-1.49
2023-01-20T22:50:54.676Z,-1.57
2023-01-20T22:56:01.099Z,-1.66
2023-01-20T23:01:02.565Z,-1.73
2023-01-20T23:06:03.815Z,-1.69
2023-01-20T23:11:05.005Z,-1.73
2023-01-20T23:16:08.341Z,-1.83
2023-01-20T23:21:11.543Z,-1.88
2023-01-20T23:26:13.190Z,-1.89
2023-01-20T23:31:14.751Z,-1.92
2023-01-20T23:36:16.019Z,-2.05
2023-01-20T23:41:17.151Z,-2.00
2023-01-20T23:46:18.350Z,-2.08
2023-01-20T23:51:19.640Z,-2.10
2023-01-20T23:56:20.879Z,-2.07
